createdAt,value
2017-07-10T11:29:59.373Z,99.90
2017-07-10T11:32:26.913Z,56.70
2017-07-10T11:34:54.514Z,53.10
2017-07-10T11:37:22.058Z,50.90
2017-07-10T11:39:49.615Z,53.00
2017-07-10T11:42:17.147Z,55.70
2017-07-10T11:44:44.671Z,61.30
2017-07-10T11:47:12.295Z,61.50
2017-07-10T11:49:39.867Z,59.70
2017-07-10T11:52:07.419Z,62.70
2017-07-10T11:54:34.974Z,65.90
2017-07-10T11:57:03.206Z,67.10
2017-07-10T11:59:31.527Z,65.70
2017-07-10T12:01:59.090Z,65.60
2017-07-10T12:04:26.649Z,64.40
2017-07-10T12:06:54.174Z,59.10
2017-07-10T12:09:21.719Z,57.00
2017-07-10T12:11:50.043Z,49.50
2017-07-10T12:14:17.570Z,48.80
2017-07-10T12:16:45.983Z,42.40
2017-07-10T12:19:13.515Z,42.60
2017-07-10T12:21:41.099Z,44.80
2017-07-10T12:24:08.642Z,42.70
2017-07-10T12:26:36.163Z,41.60
2017-07-10T12:29:03.794Z,40.30
2017-07-10T12:31:31.415Z,39.60
2017-07-10T12:33:59.011Z,37.20
2017-07-10T12:36:26.563Z,36.60
2017-07-10T12:38:54.107Z,35.70
2017-07-10T12:41:21.683Z,32.70
2017-07-10T12:43:49.262Z,32.80
2017-07-10T12:46:16.802Z,33.70
2017-07-10T12:48:44.362Z,32.20
2017-07-10T12:51:12.022Z,33.40
2017-07-10T12:53:39.582Z,35.90
2017-07-10T12:56:07.969Z,34.90
2017-07-10T12:58:35.502Z,33.30
2017-07-10T13:01:03.050Z,32.50
2017-07-10T13:03:30.582Z,28.60
2017-07-10T13:05:58.110Z,29.80
2017-07-10T13:08:25.661Z,30.70
2017-07-10T13:10:53.421Z,32.30
2017-07-10T13:13:20.946Z,33.40
2017-07-10T13:15:48.545Z,34.90
2017-07-10T13:18:16.106Z,35.90
2017-07-10T13:20:43.977Z,36.90
2017-07-10T13:23:11.524Z,37.60
2017-07-10T13:25:39.046Z,39.30
2017-07-10T13:28:07.334Z,36.90
2017-07-10T13:30:34.873Z,36.80
2017-07-10T13:33:03.201Z,34.40
2017-07-10T13:35:30.775Z,33.70
2017-07-10T13:37:58.411Z,31.70
2017-07-10T13:40:25.931Z,32.80
2017-07-10T13:42:54.314Z,31.60
2017-07-10T13:45:21.931Z,31.50
2017-07-10T13:47:49.479Z,31.80
2017-07-10T13:50:17.051Z,32.30
2017-07-10T13:52:44.595Z,30.60
2017-07-10T13:55:12.119Z,30.30
2017-07-10T13:57:40.536Z,30.30
2017-07-10T14:00:08.082Z,30.30
2017-07-10T14:02:35.617Z,29.40
2017-07-10T14:05:03.157Z,30.50
2017-07-10T14:07:30.782Z,32.30
2017-07-10T14:09:58.310Z,33.70
2017-07-10T14:12:26.001Z,34.00
2017-07-10T14:14:53.660Z,32.40
2017-07-10T14:17:21.228Z,31.70
2017-07-10T14:19:48.754Z,32.30
2017-07-10T14:22:16.293Z,31.80
2017-07-10T14:24:44.589Z,30.40
2017-07-10T14:27:12.179Z,30.30
2017-07-10T14:29:39.736Z,32.40
2017-07-10T14:32:07.261Z,33.70
2017-07-10T14:34:37.106Z,33.10
2017-07-10T14:37:04.667Z,33.00
2017-07-10T14:39:32.197Z,33.10
2017-07-10T14:41:59.887Z,33.50
2017-07-10T14:44:27.550Z,32.20
2017-07-10T14:46:55.110Z,33.50
2017-07-10T14:49:22.630Z,34.80
2017-07-10T14:51:51.048Z,35.70
2017-07-10T14:54:18.609Z,35.70
2017-07-10T14:56:46.176Z,34.70
2017-07-10T14:59:13.737Z,35.20
2017-07-10T15:01:41.323Z,35.70
2017-07-10T15:04:08.949Z,36.40
2017-07-10T15:06:36.493Z,35.30
2017-07-10T15:09:04.031Z,37.60
2017-07-10T15:11:32.355Z,41.60
2017-07-10T15:13:59.915Z,41.60
2017-07-10T15:16:27.440Z,43.40
2017-07-10T15:18:54.966Z,42.80
2017-07-10T15:21:22.514Z,43.50
2017-07-10T15:23:50.052Z,43.00
2017-07-10T15:26:17.705Z,45.30
2017-07-10T15:28:45.269Z,44.30
2017-07-10T15:31:12.843Z,43.80
2017-07-10T15:33:40.394Z,42.10
2017-07-10T15:36:07.954Z,44.70
2017-07-10T15:38:35.522Z,46.50
2017-07-10T15:41:03.099Z,48.70
2017-07-10T15:43:30.730Z,50.80
2017-07-10T15:45:58.254Z,50.50
2017-07-10T15:48:25.858Z,47.90
2017-07-10T15:50:54.183Z,46.30
2017-07-10T15:53:22.497Z,43.50
2017-07-10T15:55:50.158Z,43.50
2017-07-10T15:58:21.648Z,42.60
2017-07-10T16:00:50.090Z,41.50
2017-07-10T16:03:17.663Z,41.50
2017-07-10T16:05:45.978Z,41.20
2017-07-10T16:08:14.310Z,40.50
2017-07-10T16:10:42.696Z,40.50
2017-07-10T16:13:10.362Z,40.80
2017-07-10T16:15:37.921Z,41.20
2017-07-10T16:18:05.501Z,41.80
2017-07-10T16:20:34.081Z,40.80
2017-07-10T16:23:01.625Z,42.70
2017-07-10T16:25:29.155Z,42.60
2017-07-10T16:27:56.708Z,43.70
2017-07-10T16:30:24.309Z,45.00
2017-07-10T16:32:55.688Z,45.30
2017-07-10T16:35:24.001Z,48.00
2017-07-10T16:37:51.532Z,47.90
2017-07-10T16:40:19.863Z,51.10
2017-07-10T16:42:47.418Z,51.00
2017-07-10T16:45:15.073Z,52.60
2017-07-10T16:47:42.610Z,53.80
2017-07-10T16:50:10.180Z,55.70
2017-07-10T16:52:37.706Z,57.70
2017-07-10T16:55:06.018Z,61.50
2017-07-10T16:57:34.034Z,61.40
2017-07-10T17:00:01.675Z,65.40
2017-07-10T17:02:29.197Z,67.60
2017-07-10T17:04:56.743Z,70.10
2017-07-10T17:07:24.335Z,73.20
2017-07-10T17:09:51.885Z,75.70
2017-07-10T17:12:19.444Z,77.10
2017-07-10T17:14:47.004Z,79.50
2017-07-10T17:17:14.538Z,82.00
2017-07-10T17:19:42.082Z,84.30
2017-07-10T17:22:09.610Z,87.10
2017-07-10T17:24:37.154Z,99.40
2017-07-10T17:27:04.809Z,99.90
2017-07-10T17:29:32.343Z,99.90
2017-07-10T17:31:59.891Z,99.90
2017-07-10T17:34:28.231Z,99.90
2017-07-10T17:36:55.754Z,99.90
2017-07-10T17:39:23.286Z,99.90
2017-07-10T17:41:51.598Z,99.90
2017-07-10T17:44:19.134Z,99.90
2017-07-10T17:46:46.737Z,99.90
2017-07-10T17:49:14.286Z,99.90
2017-07-10T17:51:41.813Z,99.90
2017-07-10T17:54:09.970Z,99.90
2017-07-10T17:56:38.288Z,99.90
2017-07-10T17:59:10.137Z,99.90
2017-07-10T18:01:37.673Z,99.90
2017-07-10T18:04:07.005Z,99.90
2017-07-10T18:06:34.769Z,99.90
2017-07-10T18:09:02.295Z,99.90
2017-07-10T18:11:30.609Z,99.90
2017-07-10T18:13:58.133Z,99.90
2017-07-10T18:16:26.424Z,99.90
2017-07-10T18:18:53.975Z,99.90
2017-07-10T18:21:21.496Z,99.90
2017-07-10T18:23:49.016Z,99.90
2017-07-10T18:26:16.564Z,99.90
2017-07-10T18:28:44.713Z,99.90
2017-07-10T18:31:13.193Z,99.90
2017-07-10T18:33:41.500Z,99.90
2017-07-10T18:36:09.027Z,99.90
2017-07-10T18:38:37.446Z,99.90
2017-07-10T18:41:05.006Z,99.90
2017-07-10T18:43:32.571Z,99.90
2017-07-10T18:46:00.106Z,99.90
2017-07-10T18:48:27.650Z,99.90
2017-07-10T18:50:55.953Z,99.90
2017-07-10T18:53:23.491Z,99.90
2017-07-10T18:55:51.115Z,99.90
2017-07-10T18:58:18.643Z,99.90
2017-07-10T19:00:46.206Z,99.90
2017-07-10T19:03:13.868Z,99.90
2017-07-10T19:05:41.394Z,99.90
2017-07-10T19:08:08.926Z,99.90
2017-07-10T19:10:37.248Z,99.90
2017-07-10T19:13:04.776Z,99.90
2017-07-10T19:15:33.071Z,99.90
2017-07-10T19:18:00.623Z,99.90
2017-07-10T19:20:28.157Z,99.90
2017-07-10T19:22:56.462Z,99.90
2017-07-10T19:25:24.060Z,99.90
2017-07-10T19:27:51.914Z,99.90
2017-07-10T19:30:19.482Z,99.90
2017-07-10T19:32:47.038Z,99.90
2017-07-10T19:35:14.580Z,99.90
2017-07-10T19:37:42.152Z,99.90
2017-07-10T19:40:09.748Z,99.90
2017-07-10T19:42:37.269Z,99.90
2017-07-10T19:45:04.792Z,99.90
2017-07-10T19:47:33.219Z,99.90
2017-07-10T19:50:00.743Z,99.90
2017-07-10T19:52:28.278Z,99.90
2017-07-10T19:54:56.591Z,99.90
2017-07-10T19:57:24.154Z,99.90
2017-07-10T19:59:51.693Z,99.90
2017-07-10T20:02:19.290Z,99.90
2017-07-10T20:04:46.844Z,99.90
2017-07-10T20:07:14.370Z,99.90
2017-07-10T20:09:42.678Z,99.90
2017-07-10T20:12:10.201Z,99.90
2017-07-10T20:14:38.514Z,99.90
2017-07-10T20:17:06.058Z,99.90
2017-07-10T20:19:33.589Z,99.90
2017-07-10T20:22:01.885Z,99.90
2017-07-10T20:24:29.438Z,99.90
2017-07-10T20:26:56.976Z,99.90
2017-07-10T20:29:25.288Z,99.90
2017-07-10T20:31:52.965Z,99.90
2017-07-10T20:34:20.490Z,99.90
2017-07-10T20:36:48.773Z,99.90
2017-07-10T20:39:16.309Z,99.90
2017-07-10T20:41:43.824Z,99.90
2017-07-10T20:44:11.348Z,99.90
2017-07-10T20:46:38.891Z,99.90
2017-07-10T20:49:06.510Z,99.90
2017-07-10T20:51:34.030Z,99.90
2017-07-10T20:54:01.589Z,99.90
2017-07-10T20:56:29.122Z,99.90
2017-07-10T20:58:56.650Z,99.90
2017-07-10T21:01:24.307Z,99.90
2017-07-10T21:03:51.830Z,99.90
2017-07-10T21:06:19.367Z,99.90
2017-07-10T21:08:47.680Z,99.90
2017-07-10T21:11:15.201Z,99.90
2017-07-10T21:13:43.499Z,99.90
2017-07-10T21:16:11.963Z,99.90
2017-07-10T21:18:40.254Z,99.90
2017-07-10T21:21:07.778Z,99.90
2017-07-10T21:23:35.321Z,99.90
2017-07-10T21:26:02.854Z,99.90
2017-07-10T21:28:30.384Z,99.90
2017-07-10T21:30:58.713Z,99.90
2017-07-10T21:33:26.360Z,99.90
2017-07-10T21:35:53.885Z,99.90
2017-07-10T21:38:21.438Z,99.90
2017-07-10T21:40:49.731Z,99.90
2017-07-10T21:46:10.819Z,99.90
2017-07-10T21:48:38.343Z,99.90
2017-07-10T21:51:06.634Z,99.90
2017-07-10T21:53:34.943Z,99.90
2017-07-10T21:56:02.471Z,99.90
2017-07-10T21:58:30.760Z,99.90
2017-07-10T22:00:58.297Z,99.90
2017-07-10T22:03:26.719Z,99.90
2017-07-10T22:17:26.478Z,99.90
2017-07-10T22:19:53.998Z,99.90
2017-07-10T22:22:21.525Z,99.90
2017-07-10T22:24:49.842Z,99.90
2017-07-10T22:27:17.374Z,99.90
2017-07-10T22:29:44.902Z,99.90
2017-07-10T22:32:12.446Z,99.90
2017-07-10T22:34:39.981Z,99.90
2017-07-10T22:37:07.514Z,99.90
2017-07-10T22:39:35.202Z,99.90
2017-07-10T22:42:02.723Z,99.90
2017-07-10T22:44:31.036Z,99.90
2017-07-10T22:46:58.598Z,99.90
2017-07-10T22:49:26.124Z,99.90
2017-07-10T22:51:54.432Z,99.90
2017-07-10T22:54:21.996Z,99.90
2017-07-10T22:56:49.523Z,99.90
2017-07-10T22:59:17.139Z,99.90
2017-07-10T23:01:44.687Z,99.90
2017-07-10T23:04:12.206Z,99.90
2017-07-10T23:06:39.746Z,99.90
2017-07-10T23:09:08.071Z,99.90
2017-07-10T23:11:35.730Z,99.90
2017-07-10T23:14:03.391Z,99.90
2017-07-10T23:16:30.927Z,99.90
2017-07-10T23:18:58.522Z,99.90
2017-07-10T23:21:26.076Z,99.90
2017-07-10T23:23:53.734Z,99.90
2017-07-10T23:26:21.294Z,99.90
2017-07-10T23:28:49.163Z,99.90
2017-07-10T23:31:16.720Z,99.90
2017-07-10T23:33:44.252Z,99.90
2017-07-10T23:36:11.949Z,99.90
2017-07-10T23:38:39.509Z,99.90
2017-07-10T23:41:07.033Z,99.90
2017-07-10T23:43:34.621Z,99.90
2017-07-10T23:46:02.284Z,99.90
2017-07-10T23:48:30.437Z,99.90
2017-07-10T23:50:57.967Z,99.90
2017-07-10T23:53:25.506Z,99.90
2017-07-10T23:55:53.027Z,99.90
2017-07-10T23:58:20.594Z,99.90
